Time;durP1;ratioP1;P1;durP2;ratioP2;P2;SDS_P1;SDS_P2;PMS_P1;PMS_P2;Temp;Humidity;BMP_temperature;BMP_pressure;BME280_temperature;BME280_humidity;BME280_pressure;Samples;Min_cycle;Max_cycle;Signal;HPM_P1;HPM_P2
2023/08/04 00:02:05;;;;;;;0.00;0.00;;;17.50;99.90;;;;;;5024707;28;20491;-65
2023/08/04 00:04:31;;;;;;;0.00;0.00;;;17.60;99.90;;;;;;5028305;28;20021;-66
2023/08/04 00:06:56;;;;;;;0.00;0.00;;;17.60;99.90;;;;;;5035778;28;20619;-66
2023/08/04 00:09:22;;;;;;;0.00;0.00;;;17.70;99.90;;;;;;5024634;28;20041;-65
2023/08/04 00:11:48;;;;;;;0.00;0.00;;;17.70;99.90;;;;;;5030421;28;20036;-65
2023/08/04 00:14:13;;;;;;;0.00;0.00;;;17.80;99.90;;;;;;5029229;28;20026;-65
2023/08/04 00:16:39;;;;;;;0.00;0.00;;;17.80;99.90;;;;;;5028487;28;20492;-66
2023/08/04 00:19:05;;;;;;;0.00;0.00;;;17.80;99.90;;;;;;5031774;28;20177;-66
2023/08/04 00:21:30;;;;;;;0.00;0.00;;;17.90;99.90;;;;;;5044198;28;21008;-66
2023/08/04 00:23:59;;;;;;;0.00;0.00;;;17.90;99.90;;;;;;5025765;28;20029;-66
2023/08/04 00:26:25;;;;;;;0.00;0.00;;;17.90;99.90;;;;;;5027896;28;20060;-66
2023/08/04 00:28:51;;;;;;;0.00;0.00;;;17.90;99.90;;;;;;5020104;28;20053;-66
2023/08/04 00:31:16;;;;;;;0.00;0.00;;;17.90;99.90;;;;;;5032060;28;20033;-65
2023/08/04 00:33:42;;;;;;;0.00;0.00;;;17.70;99.90;;;;;;5033760;28;20018;-65
2023/08/04 00:36:08;;;;;;;0.00;0.00;;;17.60;99.90;;;;;;5030114;28;20841;-66
2023/08/04 00:38:33;;;;;;;0.00;0.00;;;17.50;99.90;;;;;;5024035;28;20041;-66
2023/08/04 00:40:59;;;;;;;3.15;0.22;;;17.60;99.90;;;;;;5025982;28;20029;-65
2023/08/04 00:43:25;;;;;;;0.00;0.00;;;17.60;99.90;;;;;;5030481;28;20032;-65
2023/08/04 00:45:50;;;;;;;0.00;0.00;;;17.60;99.90;;;;;;5025401;28;20076;-66
2023/08/04 00:48:16;;;;;;;0.00;0.00;;;17.60;99.90;;;;;;5026274;28;20017;-66
2023/08/04 00:50:42;;;;;;;0.00;0.00;;;17.60;99.90;;;;;;5027032;28;20391;-65
2023/08/04 00:53:10;;;;;;;0.00;0.00;;;17.70;99.90;;;;;;5042744;28;20388;-66
2023/08/04 00:55:36;;;;;;;0.00;0.00;;;17.70;99.90;;;;;;5021786;28;20139;-66
2023/08/04 00:58:02;;;;;;;0.00;0.00;;;17.90;99.90;;;;;;5044551;28;20134;-65
2023/08/04 01:00:28;;;;;;;;;;;18.00;99.90;;;;;;5028178;28;20043;-65
2023/08/04 01:02:54;;;;;;;0.00;0.00;;;18.00;99.90;;;;;;5027850;28;19905;-66
2023/08/04 01:05:22;;;;;;;0.00;0.00;;;18.00;99.90;;;;;;5026374;28;20104;-66
2023/08/04 01:07:56;;;;;;;0.00;0.00;;;18.10;99.90;;;;;;5025493;28;20124;-65
2023/08/04 01:10:49;;;;;;;0.00;0.00;;;18.00;99.90;;;;;;5026206;28;20500;-66
2023/08/04 01:13:21;;;;;;;0.00;0.00;;;18.00;99.90;;;;;;5045564;28;20650;-66
2023/08/04 01:15:49;;;;;;;0.00;0.00;;;18.00;99.90;;;;;;5023698;28;20029;-65
2023/08/04 01:18:20;;;;;;;0.00;0.00;;;18.00;99.90;;;;;;5027425;28;20021;-65
2023/08/04 01:20:45;;;;;;;0.00;0.00;;;18.00;99.90;;;;;;5030977;28;20391;-65
2023/08/04 01:23:11;;;;;;;0.00;0.00;;;18.10;99.90;;;;;;5025605;28;20025;-66
2023/08/04 01:25:37;;;;;;;0.00;0.00;;;18.20;99.90;;;;;;5022470;28;20492;-66
2023/08/04 01:28:07;;;;;;;0.00;0.00;;;18.20;99.90;;;;;;5025431;28;20096;-66
2023/08/04 01:30:34;;;;;;;0.00;0.00;;;18.10;99.90;;;;;;5045083;28;20025;-66
2023/08/04 01:32:59;;;;;;;0.00;0.00;;;18.10;99.90;;;;;;5028516;28;20044;-66
2023/08/04 01:35:26;;;;;;;0.00;0.00;;;18.10;99.90;;;;;;5045035;28;20024;-66
2023/08/04 01:37:51;;;;;;;;;;;18.10;99.90;;;;;;5040342;28;20029;-66
2023/08/04 01:40:17;;;;;;;0.00;0.00;;;18.10;99.90;;;;;;5025391;28;19919;-66
2023/08/04 01:42:43;;;;;;;0.00;0.00;;;18.00;99.90;;;;;;5049767;28;20016;-65
2023/08/04 01:45:09;;;;;;;0.00;0.00;;;18.00;99.90;;;;;;5020710;28;20040;-66
2023/08/04 01:47:34;;;;;;;;;;;18.00;99.90;;;;;;5041272;28;20048;-66
2023/08/04 01:50:00;;;;;;;0.00;0.00;;;17.90;99.90;;;;;;5029902;28;20030;-65
2023/08/04 01:52:26;;;;;;;0.00;0.00;;;17.90;99.90;;;;;;5027231;28;20033;-66
2023/08/04 01:54:51;;;;;;;0.00;0.00;;;17.90;99.90;;;;;;5020212;28;20041;-66
2023/08/04 01:57:17;;;;;;;0.00;0.00;;;17.90;99.90;;;;;;5026390;28;20021;-66
2023/08/04 01:59:43;;;;;;;0.00;0.00;;;17.90;99.90;;;;;;5020533;28;20053;-66
2023/08/04 02:02:08;;;;;;;0.00;0.00;;;17.90;99.90;;;;;;5026127;28;20030;-66
2023/08/04 02:04:34;;;;;;;0.00;0.00;;;17.80;99.90;;;;;;5020812;28;20032;-65
2023/08/04 02:07:00;;;;;;;0.00;0.00;;;17.70;99.90;;;;;;5030447;28;20029;-65
2023/08/04 02:09:27;;;;;;;0.00;0.00;;;17.60;99.90;;;;;;5046042;28;20038;-66
2023/08/04 02:11:57;;;;;;;0.00;0.00;;;17.60;99.90;;;;;;5021640;28;20029;-65
2023/08/04 02:14:22;;;;;;;0.00;0.00;;;17.50;99.90;;;;;;5032894;28;20110;-65
2023/08/04 02:16:48;;;;;;;0.00;0.00;;;17.50;99.90;;;;;;5041208;28;20468;-65
2023/08/04 02:19:14;;;;;;;0.00;0.00;;;17.40;99.90;;;;;;5024588;28;20029;-65
2023/08/04 02:21:39;;;;;;;0.00;0.00;;;17.40;99.90;;;;;;5030359;28;20025;-66
2023/08/04 02:24:05;;;;;;;0.00;0.00;;;17.30;99.90;;;;;;5022910;28;20064;-65
2023/08/04 02:26:31;;;;;;;0.00;0.00;;;17.30;99.90;;;;;;5041833;28;20021;-64
2023/08/04 02:28:57;;;;;;;0.00;0.00;;;17.30;99.90;;;;;;5026276;28;20109;-66
2023/08/04 02:31:25;;;;;;;0.00;0.00;;;17.20;99.90;;;;;;5041019;28;20113;-66
2023/08/04 02:33:52;;;;;;;0.00;0.00;;;17.30;99.90;;;;;;5021838;28;20472;-66
2023/08/04 02:36:19;;;;;;;0.00;0.00;;;17.40;99.90;;;;;;5026914;28;20022;-65
2023/08/04 02:38:45;;;;;;;0.00;0.00;;;17.50;99.90;;;;;;5023177;28;20549;-66
2023/08/04 02:41:10;;;;;;;0.00;0.00;;;17.60;99.90;;;;;;5020224;28;20104;-66
2023/08/04 02:43:37;;;;;;;0.00;0.00;;;17.60;99.90;;;;;;5025848;28;20032;-66
2023/08/04 02:46:03;;;;;;;0.00;0.00;;;17.60;99.90;;;;;;5025075;28;20516;-66
2023/08/04 02:48:29;;;;;;;0.00;0.00;;;17.60;99.90;;;;;;5026001;28;20053;-66
2023/08/04 02:51:08;;;;;;;0.00;0.00;;;17.60;99.90;;;;;;5037620;28;20033;-66
2023/08/04 02:53:36;;;;;;;0.00;0.00;;;17.50;99.90;;;;;;5025364;28;20021;-66
2023/08/04 02:56:28;;;;;;;0.00;0.00;;;17.50;99.90;;;;;;5027209;28;20763;-66
2023/08/04 02:58:54;;;;;;;0.00;0.00;;;17.40;99.90;;;;;;5017259;28;20041;-66
2023/08/04 03:01:19;;;;;;;0.00;0.00;;;17.40;99.90;;;;;;5040701;28;20024;-65
2023/08/04 03:03:45;;;;;;;0.00;0.00;;;17.50;99.90;;;;;;5037844;28;20068;-66
2023/08/04 03:06:10;;;;;;;0.00;0.00;;;17.50;99.90;;;;;;5023320;28;20071;-66
2023/08/04 03:08:37;;;;;;;0.00;0.00;;;17.50;99.90;;;;;;5023432;28;20058;-65
2023/08/04 03:11:09;;;;;;;0.00;0.00;;;17.40;99.90;;;;;;5045975;28;20538;-66
2023/08/04 03:13:34;;;;;;;0.00;0.00;;;17.30;99.90;;;;;;5052130;28;20391;-65
2023/08/04 03:16:01;;;;;;;0.10;0.10;;;17.30;99.90;;;;;;5022124;28;20030;-66
2023/08/04 03:18:27;;;;;;;0.00;0.00;;;17.20;99.90;;;;;;5021881;28;20029;-65
2023/08/04 03:20:54;;;;;;;0.00;0.00;;;17.10;99.90;;;;;;5032626;28;20028;-65
2023/08/04 03:23:21;;;;;;;0.00;0.00;;;17.00;99.90;;;;;;5040741;28;20676;-66
2023/08/04 03:25:47;;;;;;;0.00;0.00;;;17.00;99.90;;;;;;5026559;28;20472;-66
2023/08/04 03:28:13;;;;;;;0.00;0.00;;;16.90;99.90;;;;;;5023455;28;20498;-65
2023/08/04 03:30:39;;;;;;;0.00;0.00;;;17.00;99.90;;;;;;5027406;28;20025;-65
2023/08/04 03:33:05;;;;;;;0.00;0.00;;;17.10;99.90;;;;;;5022967;28;20113;-65
2023/08/04 03:35:31;;;;;;;0.00;0.00;;;17.20;99.90;;;;;;5029671;28;20061;-66
2023/08/04 03:37:57;;;;;;;0.00;0.00;;;17.20;99.90;;;;;;5024329;28;20127;-66
2023/08/04 03:40:23;;;;;;;0.00;0.00;;;17.20;99.90;;;;;;5022232;28;20025;-66
2023/08/04 03:42:48;;;;;;;0.00;0.00;;;17.20;99.90;;;;;;5030878;28;20263;-65
2023/08/04 03:45:14;;;;;;;0.00;0.00;;;17.20;99.90;;;;;;5029088;28;20112;-65
2023/08/04 03:47:40;;;;;;;0.28;0.22;;;17.20;99.90;;;;;;5020211;28;20017;-65
2023/08/04 03:50:06;;;;;;;0.00;0.00;;;17.30;99.90;;;;;;5022854;28;20129;-65
2023/08/04 03:52:32;;;;;;;0.00;0.00;;;17.30;99.90;;;;;;5025003;28;20810;-66
2023/08/04 03:54:58;;;;;;;0.03;0.03;;;17.40;99.90;;;;;;5024672;28;20103;-66
2023/08/04 03:57:24;;;;;;;0.00;0.00;;;17.40;99.90;;;;;;5015541;28;20081;-66
2023/08/04 03:59:52;;;;;;;0.00;0.00;;;17.20;99.90;;;;;;5033736;28;20647;-65
2023/08/04 04:02:18;;;;;;;0.00;0.00;;;17.20;99.90;;;;;;5025206;28;20025;-66
2023/08/04 04:04:44;;;;;;;0.00;0.00;;;17.30;99.90;;;;;;5026835;28;20029;-66
2023/08/04 04:07:09;;;;;;;0.00;0.00;;;17.30;99.90;;;;;;5031661;28;20025;-66
2023/08/04 04:09:35;;;;;;;0.00;0.00;;;17.30;99.90;;;;;;5023792;28;20035;-66
2023/08/04 04:12:01;;;;;;;0.00;0.00;;;17.40;99.90;;;;;;5024493;28;20159;-66
2023/08/04 04:14:26;;;;;;;0.00;0.00;;;17.40;99.90;;;;;;5028623;28;20032;-66
2023/08/04 04:16:52;;;;;;;0.00;0.00;;;17.40;99.90;;;;;;5019891;28;20564;-66
2023/08/04 04:19:17;;;;;;;0.00;0.00;;;17.40;99.90;;;;;;5027942;28;20029;-65
2023/08/04 04:21:43;;;;;;;0.00;0.00;;;17.30;99.90;;;;;;5028447;28;20029;-65
2023/08/04 04:24:09;;;;;;;0.00;0.00;;;17.30;99.90;;;;;;5040189;28;20025;-66
2023/08/04 04:26:34;;;;;;;0.00;0.00;;;17.40;99.90;;;;;;5042883;28;20115;-65
2023/08/04 04:29:00;;;;;;;0.00;0.00;;;17.40;99.90;;;;;;5040058;28;20116;-66
2023/08/04 04:31:26;;;;;;;0.00;0.00;;;17.30;99.90;;;;;;5031790;28;20558;-66
2023/08/04 04:33:51;;;;;;;0.00;0.00;;;17.30;99.90;;;;;;5024182;28;20034;-66
2023/08/04 04:36:17;;;;;;;0.00;0.00;;;17.20;99.90;;;;;;5040454;28;20025;-65
2023/08/04 04:38:43;;;;;;;0.00;0.00;;;17.20;99.90;;;;;;5029263;28;20098;-66
2023/08/04 04:41:09;;;;;;;0.00;0.00;;;17.20;99.90;;;;;;5037202;28;20036;-66
2023/08/04 04:43:35;;;;;;;0.00;0.00;;;17.20;99.90;;;;;;5039217;28;20602;-66
2023/08/04 04:46:01;;;;;;;;;;;17.30;99.90;;;;;;5025653;28;20026;-66
2023/08/04 04:48:26;;;;;;;0.00;0.00;;;17.30;99.90;;;;;;5024020;28;19955;-66
2023/08/04 04:50:53;;;;;;;0.00;0.00;;;17.30;99.90;;;;;;5030460;28;20029;-66
2023/08/04 04:53:18;;;;;;;0.00;0.00;;;17.30;99.90;;;;;;5026306;28;20057;-65
2023/08/04 04:55:44;;;;;;;0.00;0.00;;;17.40;99.90;;;;;;5041270;28;20456;-65
2023/08/04 04:58:12;;;;;;;0.00;0.00;;;17.40;99.90;;;;;;5027419;28;20497;-66
2023/08/04 05:00:38;;;;;;;0.00;0.00;;;17.50;99.90;;;;;;5019813;28;20028;-64
2023/08/04 05:03:06;;;;;;;0.00;0.00;;;17.50;99.90;;;;;;5044309;28;20090;-65
2023/08/04 05:05:32;;;;;;;0.00;0.00;;;17.60;99.90;;;;;;5031612;28;20050;-64
2023/08/04 05:07:58;;;;;;;;;;;17.70;99.90;;;;;;5023834;28;20030;-64
2023/08/04 05:10:25;;;;;;;0.00;0.00;;;17.70;99.90;;;;;;5030007;28;19959;-64
2023/08/04 05:12:50;;;;;;;0.00;0.00;;;17.70;99.90;;;;;;5050455;28;20111;-64
2023/08/04 05:15:16;;;;;;;0.00;0.00;;;17.70;99.90;;;;;;5040941;28;20140;-65
2023/08/04 05:17:42;;;;;;;0.00;0.00;;;17.80;99.90;;;;;;5030949;28;20087;-74
2023/08/04 05:20:08;;;;;;;0.00;0.00;;;17.80;99.90;;;;;;5024219;28;20040;-71
2023/08/04 05:22:34;;;;;;;0.00;0.00;;;17.90;99.90;;;;;;5034824;28;20508;-75
2023/08/04 05:24:59;;;;;;;0.00;0.00;;;18.00;99.90;;;;;;5039749;28;20095;-72
2023/08/04 05:27:25;;;;;;;0.00;0.00;;;17.90;99.90;;;;;;5039882;28;20052;-74
2023/08/04 05:29:51;;;;;;;0.00;0.00;;;17.90;99.90;;;;;;5041503;28;20540;-74
2023/08/04 05:32:16;;;;;;;0.00;0.00;;;18.00;99.90;;;;;;5025924;28;20155;-70
2023/08/04 05:34:42;;;;;;;0.00;0.00;;;18.10;99.90;;;;;;5030391;28;20026;-71
2023/08/04 05:37:08;;;;;;;0.00;0.00;;;18.20;99.90;;;;;;5032653;28;20504;-72
2023/08/04 05:39:33;;;;;;;0.00;0.00;;;18.20;99.90;;;;;;5026052;28;20095;-74
2023/08/04 05:41:59;;;;;;;0.00;0.00;;;18.20;99.90;;;;;;5033457;28;20686;-74
2023/08/04 05:44:25;;;;;;;0.00;0.00;;;18.30;99.90;;;;;;5032533;28;20029;-74
2023/08/04 05:46:50;;;;;;;0.00;0.00;;;18.30;99.90;;;;;;5027128;28;20026;-73
2023/08/04 05:49:17;;;;;;;0.00;0.00;;;18.40;99.90;;;;;;5031909;28;20040;-71
2023/08/04 05:51:45;;;;;;;0.00;0.00;;;18.50;99.90;;;;;;5035886;28;20021;-72
2023/08/04 05:54:10;;;;;;;0.00;0.00;;;18.70;99.90;;;;;;5025107;28;20040;-69
2023/08/04 05:56:36;;;;;;;0.00;0.00;;;18.90;99.90;;;;;;5023895;28;20559;-71
2023/08/04 05:59:02;;;;;;;0.00;0.00;;;19.00;99.90;;;;;;5029356;28;20032;-76
2023/08/04 06:01:27;;;;;;;0.00;0.00;;;19.40;99.90;;;;;;5042612;28;20373;-77
2023/08/04 06:03:53;;;;;;;0.00;0.00;;;19.70;99.90;;;;;;5018740;28;20473;-76
2023/08/04 06:06:20;;;;;;;0.00;0.00;;;19.70;99.90;;;;;;5026811;28;20519;-76
2023/08/04 06:08:46;;;;;;;0.00;0.00;;;19.60;99.90;;;;;;5024444;28;20076;-75
2023/08/04 06:11:12;;;;;;;0.00;0.00;;;19.40;99.90;;;;;;5026080;28;20051;-74
2023/08/04 06:13:38;;;;;;;0.00;0.00;;;19.40;99.90;;;;;;5032785;28;20413;-74
2023/08/04 06:16:04;;;;;;;0.00;0.00;;;19.20;99.90;;;;;;5025678;28;20031;-75
2023/08/04 06:18:29;;;;;;;0.00;0.00;;;19.20;99.90;;;;;;5027958;28;20021;-76
2023/08/04 06:20:55;;;;;;;0.00;0.00;;;19.10;99.90;;;;;;5040186;28;20022;-75
2023/08/04 06:23:20;;;;;;;0.00;0.00;;;19.20;99.90;;;;;;5031241;28;20032;-76
2023/08/04 06:25:46;;;;;;;0.00;0.00;;;19.10;99.90;;;;;;5020792;28;20072;-75
2023/08/04 06:28:12;;;;;;;0.00;0.00;;;19.10;99.90;;;;;;5024766;28;20037;-74
2023/08/04 06:30:37;;;;;;;0.00;0.00;;;19.10;99.90;;;;;;5026969;28;20045;-72
2023/08/04 06:33:03;;;;;;;0.00;0.00;;;18.90;99.90;;;;;;5042323;28;20165;-76
2023/08/04 06:35:29;;;;;;;0.00;0.00;;;18.80;99.90;;;;;;5028279;28;20086;-76
2023/08/04 06:37:54;;;;;;;0.00;0.00;;;18.80;99.90;;;;;;5023770;28;20123;-77
2023/08/04 06:40:20;;;;;;;0.00;0.00;;;18.90;99.90;;;;;;5023384;28;20109;-77
2023/08/04 06:42:45;;;;;;;0.00;0.00;;;19.10;99.90;;;;;;5031776;28;20028;-77
2023/08/04 06:45:11;;;;;;;0.00;0.00;;;19.30;99.90;;;;;;5028206;28;20028;-75
2023/08/04 06:47:37;;;;;;;0.22;0.22;;;19.60;99.90;;;;;;5035393;28;20502;-77
2023/08/04 06:50:03;;;;;;;0.00;0.00;;;19.90;99.90;;;;;;5031037;28;20051;-75
2023/08/04 06:52:30;;;;;;;;;;;20.20;99.90;;;;;;5028634;28;20026;-77
2023/08/04 06:54:56;;;;;;;0.00;0.00;;;20.50;99.90;;;;;;5027385;28;20461;-77
2023/08/04 06:57:22;;;;;;;0.00;0.00;;;20.60;99.90;;;;;;5022249;28;20072;-77
2023/08/04 06:59:47;;;;;;;0.32;0.20;;;20.80;99.90;;;;;;5024737;28;20056;-77
2023/08/04 07:02:13;;;;;;;0.00;0.00;;;21.10;99.90;;;;;;5028757;28;20025;-77
2023/08/04 07:04:39;;;;;;;0.00;0.00;;;21.60;99.90;;;;;;5022457;28;20056;-77
2023/08/04 07:07:04;;;;;;;0.00;0.00;;;22.10;99.90;;;;;;5031067;28;20025;-77
2023/08/04 07:09:30;;;;;;;0.00;0.00;;;22.50;99.90;;;;;;5029703;28;20017;-76
2023/08/04 07:11:56;;;;;;;0.00;0.00;;;23.60;99.90;;;;;;5044089;28;20047;-77
2023/08/04 07:14:21;;;;;;;0.00;0.00;;;24.40;99.90;;;;;;5045454;28;20550;-78
2023/08/04 07:16:47;;;;;;;;;;;24.60;99.90;;;;;;5023008;28;20040;-75
2023/08/04 07:19:14;;;;;;;0.00;0.00;;;25.20;99.90;;;;;;5032813;28;20396;-76
2023/08/04 07:21:40;;;;;;;0.00;0.00;;;25.90;99.90;;;;;;5026710;28;20079;-77
2023/08/04 07:24:06;;;;;;;0.00;0.00;;;25.60;99.90;;;;;;5031444;28;20495;-73
2023/08/04 07:26:32;;;;;;;0.00;0.00;;;25.40;99.90;;;;;;5024721;28;20025;-77
2023/08/04 07:28:58;;;;;;;0.00;0.00;;;25.10;99.90;;;;;;5035494;28;20018;-77
2023/08/04 07:31:24;;;;;;;0.00;0.00;;;24.90;99.90;;;;;;5033577;28;20022;-76
2023/08/04 07:33:49;;;;;;;;;;;24.10;99.90;;;;;;5040366;28;20017;-76
2023/08/04 07:36:15;;;;;;;0.00;0.00;;;24.10;99.90;;;;;;5047041;28;19919;-77
2023/08/04 07:38:41;;;;;;;0.00;0.00;;;24.30;99.90;;;;;;5020230;28;20013;-76
2023/08/04 07:41:07;;;;;;;;;;;24.10;99.90;;;;;;5023144;28;20020;-76
2023/08/04 07:43:33;;;;;;;0.00;0.00;;;23.20;99.90;;;;;;5033853;28;19913;-76
2023/08/04 07:45:58;;;;;;;0.00;0.00;;;22.40;99.90;;;;;;5025681;28;20021;-76
2023/08/04 07:48:24;;;;;;;;;;;22.20;99.90;;;;;;5024623;28;20017;-76
2023/08/04 07:50:51;;;;;;;0.00;0.00;;;22.00;99.90;;;;;;5026617;28;19915;-75
2023/08/04 07:53:17;;;;;;;0.00;0.00;;;22.00;99.90;;;;;;5045651;28;20036;-75
2023/08/04 07:55:53;;;;;;;0.00;0.00;;;22.10;99.90;;;;;;5039516;28;20038;-77
2023/08/04 07:58:19;;;;;;;0.00;0.00;;;22.30;99.90;;;;;;5034377;28;20648;-76
2023/08/04 08:00:45;;;;;;;0.00;0.00;;;22.70;99.90;;;;;;5042948;28;20034;-77
2023/08/04 08:03:10;;;;;;;0.00;0.00;;;22.70;99.90;;;;;;5024346;28;20084;-77
2023/08/04 08:05:36;;;;;;;0.00;0.00;;;22.80;99.90;;;;;;5040667;28;20037;-74
2023/08/04 08:08:02;;;;;;;0.10;0.10;;;22.70;99.90;;;;;;5025601;28;20025;-76
2023/08/04 08:10:27;;;;;;;;;;;22.60;99.90;;;;;;5043335;28;20034;-77
2023/08/04 08:12:53;;;;;;;0.00;0.00;;;22.90;99.90;;;;;;5036829;28;19904;-77
2023/08/04 08:15:19;;;;;;;;;;;23.40;99.90;;;;;;5032273;28;20033;-77
2023/08/04 08:17:45;;;;;;;0.00;0.00;;;23.40;99.90;;;;;;5040225;28;19978;-76
2023/08/04 08:20:11;;;;;;;0.17;0.00;;;23.20;99.90;;;;;;5036592;28;20099;-77
2023/08/04 08:22:37;;;;;;;0.00;0.00;;;22.80;99.90;;;;;;5039500;28;20563;-77
2023/08/04 08:25:02;;;;;;;0.00;0.00;;;22.50;99.90;;;;;;5028508;28;20123;-75
2023/08/04 08:27:28;;;;;;;0.00;0.00;;;22.60;99.90;;;;;;5050916;28;20017;-76
2023/08/04 08:29:55;;;;;;;0.00;0.00;;;23.20;99.90;;;;;;5026117;28;20361;-73
2023/08/04 08:32:21;;;;;;;0.00;0.00;;;23.30;99.90;;;;;;5065543;28;20466;-72
2023/08/04 08:34:47;;;;;;;0.00;0.00;;;23.80;99.90;;;;;;5054974;28;20056;-73
2023/08/04 08:37:13;;;;;;;0.00;0.00;;;23.80;99.90;;;;;;5060346;28;20101;-73
2023/08/04 08:39:39;;;;;;;;;;;23.40;99.90;;;;;;5064931;28;20039;-76
2023/08/04 08:42:05;;;;;;;0.00;0.00;;;23.00;99.90;;;;;;5061550;28;19912;-75
2023/08/04 08:44:31;;;;;;;0.00;0.00;;;23.00;99.90;;;;;;5067927;28;20435;-73
2023/08/04 08:46:57;;;;;;;0.00;0.00;;;22.60;99.90;;;;;;5066355;28;20482;-73
2023/08/04 08:49:24;;;;;;;;;;;22.60;99.90;;;;;;5058269;28;20029;-73
2023/08/04 08:51:52;;;;;;;0.00;0.00;;;22.80;99.90;;;;;;5061702;28;20352;-73
2023/08/04 08:54:19;;;;;;;0.00;0.00;;;22.90;99.90;;;;;;5050792;28;20021;-72
2023/08/04 08:56:45;;;;;;;0.00;0.00;;;23.00;99.90;;;;;;5045127;28;20399;-74
2023/08/04 08:59:12;;;;;;;0.00;0.00;;;23.00;99.90;;;;;;5050598;28;20039;-73
2023/08/04 09:01:38;;;;;;;0.00;0.00;;;23.00;99.90;;;;;;5049445;28;20025;-75
2023/08/04 09:04:05;;;;;;;0.00;0.00;;;23.00;99.90;;;;;;5043236;28;20493;-73
2023/08/04 09:06:31;;;;;;;0.00;0.00;;;22.90;99.90;;;;;;5045175;28;20475;-73
2023/08/04 09:09:00;;;;;;;0.00;0.00;;;22.90;99.90;;;;;;5041795;28;20029;-74
2023/08/04 09:11:29;;;;;;;0.00;0.00;;;22.90;99.90;;;;;;5041953;28;20063;-74
2023/08/04 09:13:55;;;;;;;0.00;0.00;;;23.00;99.90;;;;;;5044155;28;20037;-73
2023/08/04 09:16:36;;;;;;;0.00;0.00;;;23.10;99.90;;;;;;5044155;28;20492;-74
2023/08/04 09:19:04;;;;;;;0.00;0.00;;;23.30;99.90;;;;;;5042278;28;20089;-74
2023/08/04 09:21:30;;;;;;;0.00;0.00;;;23.60;99.90;;;;;;5043891;28;20025;-73
2023/08/04 09:23:56;;;;;;;0.00;0.00;;;23.70;99.90;;;;;;5041192;28;20082;-74
2023/08/04 09:26:22;;;;;;;0.00;0.00;;;23.70;99.90;;;;;;5059497;28;20567;-74
2023/08/04 09:29:06;;;;;;;;;;;23.90;99.90;;;;;;5043086;28;20037;-74
2023/08/04 09:31:39;;;;;;;0.05;0.05;;;24.10;99.90;;;;;;5024492;28;19959;-73
2023/08/04 09:34:06;;;;;;;0.00;0.00;;;23.50;99.90;;;;;;5023231;28;20037;-73
2023/08/04 09:36:40;;;;;;;0.47;0.08;;;23.00;99.90;;;;;;5051641;28;20446;-73
2023/08/04 09:39:06;;;;;;;0.00;0.00;;;23.10;99.90;;;;;;5067622;28;20021;-73
2023/08/04 09:41:41;;;;;;;0.05;0.00;;;23.30;99.90;;;;;;5043060;28;20452;-73
2023/08/04 09:44:07;;;;;;;0.00;0.00;;;23.00;99.90;;;;;;5049159;28;20445;-74
2023/08/04 09:46:38;;;;;;;;;;;22.60;99.90;;;;;;5045955;28;20107;-74
2023/08/04 09:49:03;;;;;;;0.00;0.00;;;22.40;99.90;;;;;;5044234;28;19978;-74
2023/08/04 09:51:29;;;;;;;0.00;0.00;;;22.40;99.90;;;;;;5040202;28;20033;-73
2023/08/04 09:53:55;;;;;;;0.03;0.03;;;22.60;99.90;;;;;;5043145;28;20027;-74
2023/08/04 09:56:23;;;;;;;0.00;0.00;;;22.60;99.90;;;;;;5043743;28;20082;-73
2023/08/04 09:58:49;;;;;;;0.00;0.00;;;22.60;99.90;;;;;;5044363;28;20040;-74
2023/08/04 10:01:17;;;;;;;0.00;0.00;;;22.70;99.90;;;;;;5041284;28;20122;-73
2023/08/04 10:03:48;;;;;;;0.00;0.00;;;22.80;99.90;;;;;;5043092;28;20107;-73
2023/08/04 10:06:15;;;;;;;0.00;0.00;;;23.20;99.90;;;;;;5043584;28;20021;-73
2023/08/04 10:08:41;;;;;;;0.00;0.00;;;23.40;99.90;;;;;;5040985;28;20021;-73
2023/08/04 10:11:08;;;;;;;0.00;0.00;;;23.30;99.90;;;;;;5043282;28;20380;-74
2023/08/04 10:13:35;;;;;;;0.00;0.00;;;23.50;99.90;;;;;;5061692;28;20059;-74
2023/08/04 10:16:06;;;;;;;0.00;0.00;;;23.60;99.90;;;;;;5067286;28;20060;-74
2023/08/04 10:18:56;;;;;;;0.00;0.00;;;23.70;99.90;;;;;;5044324;28;20703;-73
2023/08/04 10:21:42;;;;;;;0.00;0.00;;;23.40;99.90;;;;;;5051116;28;20017;-74
2023/08/04 10:24:09;;;;;;;0.00;0.00;;;23.30;99.90;;;;;;5043898;28;20475;-74
2023/08/04 10:26:45;;;;;;;0.00;0.00;;;23.10;99.90;;;;;;5044375;28;20387;-73
2023/08/04 10:29:11;;;;;;;0.00;0.00;;;23.00;99.90;;;;;;5043775;28;20088;-73
2023/08/04 10:31:51;;;;;;;;;;;23.00;99.90;;;;;;5039621;28;20136;-74
2023/08/04 10:34:28;;;;;;;0.00;0.00;;;23.10;99.90;;;;;;5042953;28;19939;-74
2023/08/04 10:37:16;;;;;;;0.00;0.00;;;23.20;99.90;;;;;;5045496;28;20100;-73
2023/08/04 10:39:55;;;;;;;0.00;0.00;;;23.20;99.90;;;;;;5042242;28;20056;-74
2023/08/04 10:42:23;;;;;;;0.00;0.00;;;23.40;99.90;;;;;;5041626;28;20480;-74
2023/08/04 10:45:09;;;;;;;0.00;0.00;;;23.40;99.90;;;;;;5053404;28;20154;-73
2023/08/04 10:47:45;;;;;;;0.00;0.00;;;23.50;99.90;;;;;;5058868;28;20040;-74
2023/08/04 10:50:12;;;;;;;0.00;0.00;;;23.20;99.90;;;;;;5057185;28;20694;-73
2023/08/04 10:52:38;;;;;;;0.00;0.00;;;22.90;99.90;;;;;;5043576;28;20251;-74
2023/08/04 10:55:07;;;;;;;0.00;0.00;;;22.90;99.90;;;;;;5043339;28;20033;-74
2023/08/04 10:57:35;;;;;;;0.00;0.00;;;23.00;99.90;;;;;;5041703;28;20025;-75
2023/08/04 11:00:05;;;;;;;0.00;0.00;;;22.80;99.90;;;;;;5045562;28;20045;-74
2023/08/04 11:02:32;;;;;;;0.00;0.00;;;22.80;99.90;;;;;;5044999;28;20460;-73
2023/08/04 11:04:57;;;;;;;0.00;0.00;;;22.70;99.90;;;;;;5043130;28;20028;-73
2023/08/04 11:07:24;;;;;;;0.00;0.00;;;22.50;99.90;;;;;;5056242;28;20044;-74
2023/08/04 11:09:51;;;;;;;0.00;0.00;;;22.30;99.90;;;;;;5039505;28;20455;-73
2023/08/04 11:12:17;;;;;;;0.00;0.00;;;22.40;99.90;;;;;;5054405;28;20085;-74
2023/08/04 11:14:44;;;;;;;0.00;0.00;;;22.50;99.90;;;;;;5063997;28;20063;-74
2023/08/04 11:17:14;;;;;;;0.00;0.00;;;22.60;99.90;;;;;;5051900;28;20086;-73
2023/08/04 11:19:43;;;;;;;0.28;0.10;;;22.70;99.90;;;;;;5043790;28;20506;-73
2023/08/04 11:22:14;;;;;;;0.00;0.00;;;22.80;99.90;;;;;;5040402;28;20029;-74
2023/08/04 11:24:41;;;;;;;0.00;0.00;;;23.00;99.90;;;;;;5042017;28;20017;-73
2023/08/04 11:27:12;;;;;;;0.00;0.00;;;23.20;99.90;;;;;;5042573;28;20365;-74
2023/08/04 11:29:38;;;;;;;0.00;0.00;;;23.30;99.90;;;;;;5042866;28;20025;-74
2023/08/04 11:32:10;;;;;;;;;;;23.40;99.90;;;;;;5043720;28;20065;-74
2023/08/04 11:34:38;;;;;;;0.00;0.00;;;23.10;99.90;;;;;;5039645;28;19916;-74
2023/08/04 11:37:04;;;;;;;0.00;0.00;;;22.80;99.90;;;;;;5056169;28;20025;-73
2023/08/04 11:39:30;;;;;;;0.00;0.00;;;22.70;99.90;;;;;;5057575;28;20078;-73
2023/08/04 11:41:56;;;;;;;0.00;0.00;;;22.60;99.90;;;;;;5053353;28;20517;-73
2023/08/04 11:44:22;;;;;;;0.00;0.00;;;22.40;99.90;;;;;;5065862;28;20375;-73
2023/08/04 11:46:49;;;;;;;;;;;22.30;99.90;;;;;;5060369;28;20033;-74
2023/08/04 11:49:15;;;;;;;0.00;0.00;;;22.30;99.90;;;;;;5062741;28;20017;-74
2023/08/04 11:51:44;;;;;;;;;;;22.40;99.90;;;;;;5058798;28;20029;-74
2023/08/04 11:54:17;;;;;;;0.00;0.00;;;22.50;99.90;;;;;;5043052;28;19908;-74
2023/08/04 11:56:43;;;;;;;0.00;0.00;;;22.70;99.90;;;;;;5041061;28;20072;-74
2023/08/04 11:59:11;;;;;;;0.00;0.00;;;22.80;99.90;;;;;;5040057;28;20452;-74
2023/08/04 12:01:38;;;;;;;0.00;0.00;;;22.90;99.90;;;;;;5041777;28;20120;-74
2023/08/04 12:04:18;;;;;;;;;;;22.90;99.90;;;;;;5041567;28;20021;-73
2023/08/04 12:06:43;;;;;;;0.00;0.00;;;22.90;99.90;;;;;;5039443;28;20314;-73
2023/08/04 12:09:11;;;;;;;0.00;0.00;;;22.90;99.90;;;;;;5042283;28;20036;-73
2023/08/04 12:11:47;;;;;;;0.00;0.00;;;22.90;99.90;;;;;;5040859;28;20495;-73
2023/08/04 12:14:13;;;;;;;0.00;0.00;;;22.80;99.90;;;;;;5021542;28;20049;-74
2023/08/04 12:16:51;;;;;;;;;;;22.70;99.90;;;;;;5020164;28;20507;-74
2023/08/04 12:19:17;;;;;;;0.00;0.00;;;22.60;99.90;;;;;;5022223;28;19924;-74
2023/08/04 12:21:43;;;;;;;0.00;0.00;;;22.70;99.90;;;;;;5021010;28;20534;-74
2023/08/04 12:24:08;;;;;;;0.00;0.00;;;22.70;99.90;;;;;;5042000;28;20017;-73
2023/08/04 12:26:34;;;;;;;0.00;0.00;;;22.60;99.90;;;;;;5041093;28;20037;-74
2023/08/04 12:28:59;;;;;;;0.00;0.00;;;22.50;99.90;;;;;;5043445;28;20029;-74
2023/08/04 12:31:25;;;;;;;;;;;22.50;99.90;;;;;;5042527;28;20090;-74
2023/08/04 12:33:51;;;;;;;0.00;0.00;;;22.50;99.90;;;;;;5040561;28;19904;-74
2023/08/04 12:36:16;;;;;;;0.00;0.00;;;22.40;99.90;;;;;;5053630;28;20033;-73
2023/08/04 12:38:42;;;;;;;0.00;0.00;;;22.30;99.90;;;;;;5045404;28;20071;-73
2023/08/04 12:41:09;;;;;;;0.00;0.00;;;22.20;99.90;;;;;;5042447;28;20021;-74
2023/08/04 12:43:35;;;;;;;0.00;0.00;;;22.00;99.90;;;;;;5042841;28;20033;-73
2023/08/04 12:46:00;;;;;;;0.00;0.00;;;21.90;99.90;;;;;;5045584;28;20036;-74
2023/08/04 12:48:27;;;;;;;0.00;0.00;;;21.70;99.90;;;;;;5042408;28;20032;-74
2023/08/04 12:50:53;;;;;;;0.00;0.00;;;21.40;99.90;;;;;;5049187;28;20498;-74
2023/08/04 12:53:18;;;;;;;0.00;0.00;;;21.10;99.90;;;;;;5043588;28;20029;-74